Time;durP1;ratioP1;P1;durP2;ratioP2;P2;SDS_P1;SDS_P2;PMS_P1;PMS_P2;Temp;Humidity;BMP_temperature;BMP_pressure;BME280_temperature;BME280_humidity;BME280_pressure;Samples;Min_cycle;Max_cycle;Signal;HPM_P1;HPM_P2
2022/12/26 00:05:11;;;;;;;16.27;8.93;;;9.10;99.90;;;;;;20795134;28;20044;-39
2022/12/26 00:15:12;;;;;;;15.88;8.55;;;9.20;99.90;;;;;;20795519;28;20443;-39
2022/12/26 00:25:13;;;;;;;15.43;9.57;;;9.20;99.90;;;;;;20793293;28;20099;-39
2022/12/26 00:35:14;;;;;;;13.25;8.93;;;9.20;99.90;;;;;;20794296;28;20061;-39
2022/12/26 00:45:15;;;;;;;21.30;10.98;;;9.10;99.90;;;;;;20788306;28;20389;-40
2022/12/26 00:55:16;;;;;;;20.00;9.32;;;9.10;99.90;;;;;;20791245;28;20115;-39
2022/12/26 01:05:17;;;;;;;16.85;8.95;;;9.20;99.90;;;;;;20794288;28;20107;-39
2022/12/26 01:15:20;;;;;;;21.50;12.30;;;9.20;99.90;;;;;;20791788;28;20103;-39
2022/12/26 01:25:22;;;;;;;15.30;9.30;;;9.20;99.90;;;;;;20787209;28;20095;-39
2022/12/26 01:35:23;;;;;;;17.20;11.00;;;9.20;99.90;;;;;;20784726;28;20049;-39
2022/12/26 01:45:31;;;;;;;21.58;11.60;;;9.20;99.90;;;;;;20783487;28;20033;-40
2022/12/26 01:55:32;;;;;;;23.25;11.30;;;9.20;99.90;;;;;;20790457;28;20439;-39
2022/12/26 02:05:33;;;;;;;19.15;12.50;;;9.20;99.90;;;;;;20785695;28;20049;-39
2022/12/26 02:15:34;;;;;;;15.50;9.40;;;9.00;99.90;;;;;;20780165;28;20429;-39
2022/12/26 02:25:44;;;;;;;14.85;8.02;;;9.10;99.90;;;;;;20802193;28;20107;-40
2022/12/26 02:35:48;;;;;;;18.25;9.15;;;9.00;99.90;;;;;;20798425;28;20378;-39
2022/12/26 03:17:41;;;;;;;15.38;9.88;;;9.00;99.90;;;;;;20796434;28;20445;-39
2022/12/26 03:27:42;;;;;;;16.50;9.63;;;9.00;99.90;;;;;;20799459;28;20049;-40
2022/12/26 03:37:59;;;;;;;20.52;10.25;;;9.10;99.90;;;;;;20780360;28;20072;-39
2022/12/26 04:19:26;;;;;;;12.57;7.75;;;9.10;99.90;;;;;;20795009;28;20905;-39
2022/12/26 04:50:13;;;;;;;7.50;3.45;;;9.00;99.90;;;;;;20789591;28;20270;-39
2022/12/26 05:00:14;;;;;;;6.13;3.70;;;8.90;99.90;;;;;;20788887;28;20030;-39
2022/12/26 05:10:22;;;;;;;4.80;2.45;;;8.80;99.90;;;;;;20790465;28;20116;-40
2022/12/26 05:30:39;;;;;;;3.58;2.20;;;8.70;99.90;;;;;;20788758;28;20045;-39
2022/12/26 05:40:40;;;;;;;3.33;1.73;;;8.70;99.90;;;;;;20786012;28;20284;-39
2022/12/26 05:50:41;;;;;;;2.65;1.50;;;8.70;99.90;;;;;;20784090;28;20038;-40
2022/12/26 06:00:42;;;;;;;6.70;2.30;;;8.80;99.90;;;;;;20787642;28;20037;-40
2022/12/26 06:10:43;;;;;;;3.20;1.20;;;8.80;99.90;;;;;;20785555;28;20536;-40
2022/12/26 06:20:44;;;;;;;4.07;2.08;;;8.80;99.90;;;;;;20784845;28;20156;-40
2022/12/26 06:30:45;;;;;;;4.35;2.08;;;8.80;99.90;;;;;;20781720;28;20103;-40
2022/12/26 06:40:46;;;;;;;3.90;2.33;;;8.90;99.90;;;;;;20779048;28;20037;-40
2022/12/26 06:50:47;;;;;;;13.73;1.98;;;8.80;99.90;;;;;;20778479;28;20050;-40
2022/12/26 07:00:48;;;;;;;4.30;2.13;;;8.90;99.90;;;;;;20783077;28;20072;-40
2022/12/26 07:10:49;;;;;;;2.60;1.08;;;9.00;99.90;;;;;;20794576;28;20280;-40
2022/12/26 07:20:50;;;;;;;4.20;0.75;;;9.00;99.90;;;;;;20797122;28;20029;-40
2022/12/26 07:30:51;;;;;;;4.22;1.95;;;9.10;99.90;;;;;;20793039;28;20196;-40
2022/12/26 07:40:56;;;;;;;2.50;1.55;;;9.10;99.90;;;;;;20795038;28;20041;-40
2022/12/26 07:51:00;;;;;;;4.50;2.47;;;9.10;99.90;;;;;;20794273;28;20477;-40
2022/12/26 08:01:03;;;;;;;3.70;1.85;;;9.20;99.90;;;;;;20793471;28;20037;-40
2022/12/26 08:11:06;;;;;;;3.25;1.25;;;9.30;99.90;;;;;;20789140;28;20045;-40
2022/12/26 08:21:07;;;;;;;2.38;1.00;;;9.40;99.90;;;;;;20790388;28;20921;-40
2022/12/26 08:31:11;;;;;;;3.05;1.20;;;9.40;99.90;;;;;;20793786;28;20091;-40
2022/12/26 08:41:12;;;;;;;3.67;1.80;;;9.60;99.90;;;;;;20788864;28;21855;-39
2022/12/26 08:51:17;;;;;;;1.85;0.65;;;9.60;99.90;;;;;;20789842;28;20612;-39
2022/12/26 09:01:21;;;;;;;2.55;1.33;;;9.50;99.90;;;;;;20794687;28;20099;-40
2022/12/26 09:11:25;;;;;;;1.77;0.82;;;9.40;99.90;;;;;;20782536;28;20475;-40
2022/12/26 09:21:28;;;;;;;3.05;1.08;;;9.40;99.90;;;;;;20790636;28;20331;-39
2022/12/26 09:31:31;;;;;;;1.67;0.50;;;9.30;99.90;;;;;;20787510;28;20046;-40
2022/12/26 09:41:57;;;;;;;2.17;0.65;;;9.00;99.90;;;;;;20791149;28;20447;-40
2022/12/26 09:52:02;;;;;;;1.35;0.40;;;8.40;99.90;;;;;;20780119;28;20050;-40
2022/12/26 10:02:03;;;;;;;6.68;1.48;;;8.10;99.90;;;;;;20784730;28;20489;-40
2022/12/26 10:12:16;;;;;;;3.65;1.35;;;8.10;99.90;;;;;;20778430;28;20100;-39
2022/12/26 10:22:27;;;;;;;10.27;1.60;;;7.90;99.90;;;;;;20789477;28;20284;-40
2022/12/26 10:32:41;;;;;;;2.03;0.85;;;8.00;99.90;;;;;;20781607;28;20041;-40
2022/12/26 10:42:47;;;;;;;1.50;0.30;;;7.90;99.90;;;;;;20792793;28;20415;-40
2022/12/26 10:52:48;;;;;;;1.30;0.65;;;7.90;99.90;;;;;;20799929;28;20440;-40
2022/12/26 11:03:06;;;;;;;2.60;0.45;;;8.20;99.90;;;;;;20802104;28;20049;-40
2022/12/26 11:13:18;;;;;;;2.80;1.17;;;8.50;99.90;;;;;;20788649;28;21865;-40
2022/12/26 11:23:32;;;;;;;1.58;0.57;;;9.50;99.90;;;;;;20761835;28;20861;-40
2022/12/26 11:33:45;;;;;;;1.42;0.38;;;9.90;95.70;;;;;;20795361;28;20050;-40
2022/12/26 11:43:47;;;;;;;1.63;0.70;;;9.60;96.20;;;;;;20783398;28;20370;-40
2022/12/26 11:53:48;;;;;;;2.38;0.70;;;9.00;97.80;;;;;;20789545;28;20543;-40
2022/12/26 12:03:49;;;;;;;1.98;0.50;;;9.10;96.20;;;;;;20751353;28;20513;-40
2022/12/26 12:14:18;;;;;;;4.93;1.38;;;9.90;92.60;;;;;;20752903;28;20041;-40
2022/12/26 12:24:39;;;;;;;0.63;0.25;;;10.30;88.20;;;;;;20753802;28;20550;-40
2022/12/26 12:35:10;;;;;;;4.47;0.68;;;9.90;87.60;;;;;;20727160;28;20136;-40
2022/12/26 12:45:29;;;;;;;1.73;0.73;;;8.80;88.40;;;;;;20686248;28;20298;-40
2022/12/26 12:55:47;;;;;;;2.35;0.93;;;9.30;90.60;;;;;;20740614;28;20605;-41
2022/12/26 13:06:07;;;;;;;1.10;0.35;;;9.10;88.80;;;;;;20711386;28;20559;-40
2022/12/26 13:16:25;;;;;;;1.33;0.50;;;9.30;85.50;;;;;;20731939;28;21283;-40
2022/12/26 13:26:29;;;;;;;;;;;8.60;89.40;;;;;;20740290;28;20245;-41
2022/12/26 13:36:51;;;;;;;1.98;0.70;;;7.90;92.80;;;;;;20700616;28;19935;-40
2022/12/26 13:46:55;;;;;;;3.63;0.98;;;7.80;91.90;;;;;;20712652;28;20557;-40
2022/12/26 13:57:30;;;;;;;1.40;0.50;;;7.60;92.70;;;;;;20709743;28;20220;-40
2022/12/26 14:08:15;;;;;;;2.22;1.13;;;7.70;91.00;;;;;;20713727;28;20866;-40
2022/12/26 14:18:29;;;;;;;2.60;1.13;;;7.50;91.90;;;;;;20640922;28;21630;-41
2022/12/26 14:28:33;;;;;;;4.32;1.40;;;7.40;91.60;;;;;;20704573;28;20191;-40
2022/12/26 14:39:15;;;;;;;6.00;2.15;;;7.20;93.90;;;;;;20689037;28;20132;-40
2022/12/26 14:49:29;;;;;;;6.18;1.17;;;7.20;96.00;;;;;;20699341;28;21917;-41
2022/12/26 14:59:32;;;;;;;4.53;1.52;;;7.20;97.80;;;;;;20719332;28;20198;-40
2022/12/26 15:09:51;;;;;;;4.38;1.50;;;7.10;97.40;;;;;;20727994;28;20072;-40
2022/12/26 15:20:14;;;;;;;10.23;4.05;;;6.90;96.60;;;;;;20728800;28;20507;-41
2022/12/26 15:30:16;;;;;;;5.28;2.30;;;6.70;99.00;;;;;;20728615;28;20263;-41
2022/12/26 15:40:27;;;;;;;9.00;3.92;;;6.50;99.60;;;;;;20725657;28;20132;-41
2022/12/26 15:50:47;;;;;;;51.72;5.40;;;6.30;99.90;;;;;;20724393;28;20063;-40
2022/12/26 16:00:51;;;;;;;3.45;1.60;;;6.10;99.90;;;;;;20732039;28;20386;-41
2022/12/26 16:11:19;;;;;;;3.13;1.45;;;5.90;99.90;;;;;;20681336;28;20099;-40
2022/12/26 16:31:44;;;;;;;7.45;3.90;;;5.50;99.90;;;;;;20714125;28;20192;-40
2022/12/26 16:42:05;;;;;;;11.05;4.30;;;5.40;99.90;;;;;;20711843;28;20124;-40
2022/12/26 16:52:06;;;;;;;7.90;3.97;;;5.40;99.90;;;;;;20718382;28;20169;-40
2022/12/26 17:02:16;;;;;;;2.60;1.58;;;5.30;99.90;;;;;;20755383;28;20160;-40
2022/12/26 17:12:36;;;;;;;5.03;2.58;;;5.40;99.90;;;;;;20777323;28;20056;-40
2022/12/26 17:22:37;;;;;;;6.32;2.30;;;5.30;99.90;;;;;;20786166;28;20099;-40
2022/12/26 17:32:45;;;;;;;5.45;1.67;;;5.30;99.90;;;;;;20785395;28;20046;-40
2022/12/26 17:42:50;;;;;;;3.22;1.30;;;5.20;99.90;;;;;;20773412;28;20352;-40
2022/12/26 17:52:51;;;;;;;5.78;1.38;;;5.10;99.90;;;;;;20775420;28;20049;-40
2022/12/26 18:02:52;;;;;;;5.57;2.17;;;5.10;99.90;;;;;;20771549;28;20048;-40
2022/12/26 18:12:54;;;;;;;8.30;1.88;;;5.10;99.90;;;;;;20768476;28;20279;-40
2022/12/26 18:22:58;;;;;;;18.20;3.03;;;5.00;99.90;;;;;;20774080;28;20477;-40
2022/12/26 18:32:59;;;;;;;3.42;0.98;;;4.90;99.90;;;;;;20776610;28;20049;-40
2022/12/26 18:43:01;;;;;;;3.65;1.67;;;4.90;99.90;;;;;;20767639;28;20049;-40
2022/12/26 18:53:02;;;;;;;2.20;1.20;;;4.90;99.90;;;;;;20770026;28;20049;-40
2022/12/26 19:03:03;;;;;;;6.53;3.55;;;4.90;99.90;;;;;;20779929;28;20038;-40
2022/12/26 19:13:04;;;;;;;4.45;2.08;;;4.80;99.90;;;;;;20787621;28;20041;-40
2022/12/26 19:23:05;;;;;;;4.25;2.05;;;4.70;99.90;;;;;;20793337;28;20582;-40
2022/12/26 19:33:06;;;;;;;8.90;1.92;;;4.80;99.90;;;;;;20789455;28;20899;-40
2022/12/26 19:43:07;;;;;;;8.98;3.03;;;4.80;99.90;;;;;;20764624;28;20428;-40
2022/12/26 19:53:08;;;;;;;3.75;1.40;;;5.00;99.90;;;;;;20724826;28;20207;-40
2022/12/26 20:03:10;;;;;;;2.97;1.00;;;4.90;99.90;;;;;;20731556;28;20065;-40
2022/12/26 20:13:11;;;;;;;4.25;1.58;;;4.80;99.90;;;;;;20736915;28;20588;-40
2022/12/26 20:23:11;;;;;;;12.52;1.30;;;4.70;99.90;;;;;;20728509;28;20806;-40
2022/12/26 20:33:13;;;;;;;9.77;2.05;;;4.80;99.90;;;;;;20727730;28;20042;-40
2022/12/26 20:43:14;;;;;;;3.42;1.67;;;4.70;99.90;;;;;;20729827;28;20069;-40
2022/12/26 20:53:14;;;;;;;6.30;2.90;;;4.70;99.90;;;;;;20725335;28;20042;-41
2022/12/26 21:03:15;;;;;;;2.83;1.40;;;4.70;99.90;;;;;;20719322;28;20081;-40
2022/12/26 21:13:16;;;;;;;8.00;1.73;;;4.60;99.90;;;;;;20746275;28;20421;-40
2022/12/26 21:23:17;;;;;;;2.03;1.25;;;4.70;99.90;;;;;;20756766;28;20502;-40
2022/12/26 21:33:19;;;;;;;4.95;1.52;;;4.70;99.90;;;;;;20746611;28;20053;-40
2022/12/26 21:43:21;;;;;;;2.03;1.13;;;4.70;99.90;;;;;;20709795;28;20037;-40
2022/12/26 21:53:22;;;;;;;2.28;1.10;;;4.50;99.90;;;;;;20729426;28;20727;-40
2022/12/26 22:13:44;;;;;;;4.72;1.33;;;4.50;99.90;;;;;;20730222;28;20499;-40
2022/12/26 22:23:46;;;;;;;4.18;1.77;;;4.50;99.90;;;;;;20754086;28;20506;-40
2022/12/26 22:33:51;;;;;;;2.30;1.10;;;4.50;99.90;;;;;;20744849;28;20543;-40
2022/12/26 22:43:53;;;;;;;1.48;0.77;;;4.30;99.90;;;;;;20788483;28;20289;-40
2022/12/26 22:53:56;;;;;;;4.82;2.15;;;4.20;99.90;;;;;;20789468;28;20100;-40
2022/12/26 23:03:59;;;;;;;6.85;3.13;;;4.20;99.90;;;;;;20795460;28;20033;-40
2022/12/26 23:14:04;;;;;;;6.05;1.30;;;4.20;99.90;;;;;;20778778;28;20574;-40
2022/12/26 23:24:21;;;;;;;2.28;1.38;;;4.20;99.90;;;;;;20773399;28;20048;-40
2022/12/26 23:34:22;;;;;;;3.67;1.37;;;4.40;99.90;;;;;;20783520;28;20956;-40
2022/12/26 23:44:23;;;;;;;3.63;1.23;;;4.60;99.90;;;;;;20791516;28;20041;-40
2022/12/26 23:54:24;;;;;;;2.05;1.00;;;4.90;99.90;;;;;;20766448;28;20369;-40
